sensor_id;sensor_type;location;lat;lon;timestamp;P1;durP1;ratioP1;P2;durP2;ratioP2
54269;SDS011;40181;51.560;13.000;2024-01-27T00:00:19;6.25;;;3.03;;
54269;SDS011;40181;51.560;13.000;2024-01-27T00:02:51;4.13;;;2.42;;
54269;SDS011;40181;51.560;13.000;2024-01-27T00:05:20;3.65;;;2.10;;
54269;SDS011;40181;51.560;13.000;2024-01-27T00:07:49;5.40;;;2.33;;
54269;SDS011;40181;51.560;13.000;2024-01-27T00:10:18;8.55;;;2.30;;
54269;SDS011;40181;51.560;13.000;2024-01-27T00:12:47;6.43;;;2.97;;
54269;SDS011;40181;51.560;13.000;2024-01-27T00:15:16;5.57;;;2.08;;
54269;SDS011;40181;51.560;13.000;2024-01-27T00:17:48;3.58;;;2.17;;
54269;SDS011;40181;51.560;13.000;2024-01-27T00:20:17;5.38;;;2.58;;
54269;SDS011;40181;51.560;13.000;2024-01-27T00:22:46;15.43;;;4.43;;
54269;SDS011;40181;51.560;13.000;2024-01-27T00:25:15;4.38;;;2.33;;
54269;SDS011;40181;51.560;13.000;2024-01-27T00:27:45;6.13;;;2.72;;
54269;SDS011;40181;51.560;13.000;2024-01-27T00:30:14;4.70;;;2.40;;
54269;SDS011;40181;51.560;13.000;2024-01-27T00:32:43;9.13;;;3.15;;
54269;SDS011;40181;51.560;13.000;2024-01-27T00:35:14;11.43;;;2.65;;
54269;SDS011;40181;51.560;13.000;2024-01-27T00:37:43;10.45;;;2.80;;
54269;SDS011;40181;51.560;13.000;2024-01-27T00:40:12;9.85;;;3.50;;
54269;SDS011;40181;51.560;13.000;2024-01-27T00:42:41;4.30;;;2.65;;
54269;SDS011;40181;51.560;13.000;2024-01-27T00:45:10;6.20;;;3.17;;
54269;SDS011;40181;51.560;13.000;2024-01-27T00:47:40;7.10;;;3.55;;
54269;SDS011;40181;51.560;13.000;2024-01-27T00:50:09;4.68;;;2.85;;
54269;SDS011;40181;51.560;13.000;2024-01-27T00:52:41;5.22;;;2.63;;
54269;SDS011;40181;51.560;13.000;2024-01-27T00:55:10;6.88;;;2.83;;
54269;SDS011;40181;51.560;13.000;2024-01-27T00:57:39;4.15;;;2.42;;
54269;SDS011;40181;51.560;13.000;2024-01-27T01:00:08;15.95;;;2.72;;
54269;SDS011;40181;51.560;13.000;2024-01-27T01:02:41;4.72;;;2.67;;
54269;SDS011;40181;51.560;13.000;2024-01-27T01:05:10;13.70;;;3.35;;
54269;SDS011;40181;51.560;13.000;2024-01-27T01:07:41;6.00;;;2.85;;
54269;SDS011;40181;51.560;13.000;2024-01-27T01:10:10;5.78;;;2.53;;
54269;SDS011;40181;51.560;13.000;2024-01-27T01:12:40;5.85;;;2.58;;
54269;SDS011;40181;51.560;13.000;2024-01-27T01:15:09;6.47;;;3.25;;
54269;SDS011;40181;51.560;13.000;2024-01-27T01:17:38;11.57;;;3.75;;
54269;SDS011;40181;51.560;13.000;2024-01-27T01:20:07;6.50;;;2.47;;
54269;SDS011;40181;51.560;13.000;2024-01-27T01:25:09;9.45;;;2.30;;
54269;SDS011;40181;51.560;13.000;2024-01-27T01:27:38;4.45;;;2.92;;
54269;SDS011;40181;51.560;13.000;2024-01-27T01:30:08;8.25;;;2.53;;
54269;SDS011;40181;51.560;13.000;2024-01-27T01:32:38;20.83;;;3.42;;
54269;SDS011;40181;51.560;13.000;2024-01-27T01:35:07;7.57;;;2.55;;
54269;SDS011;40181;51.560;13.000;2024-01-27T01:37:36;8.57;;;3.22;;
54269;SDS011;40181;51.560;13.000;2024-01-27T01:40:06;5.03;;;2.00;;
54269;SDS011;40181;51.560;13.000;2024-01-27T01:42:40;3.17;;;1.85;;
54269;SDS011;40181;51.560;13.000;2024-01-27T01:45:09;5.80;;;2.97;;
54269;SDS011;40181;51.560;13.000;2024-01-27T01:47:40;4.13;;;2.30;;
54269;SDS011;40181;51.560;13.000;2024-01-27T01:50:09;11.73;;;2.67;;
54269;SDS011;40181;51.560;13.000;2024-01-27T01:52:39;8.60;;;2.67;;
54269;SDS011;40181;51.560;13.000;2024-01-27T01:55:10;5.10;;;2.65;;
54269;SDS011;40181;51.560;13.000;2024-01-27T01:57:41;9.35;;;3.25;;
54269;SDS011;40181;51.560;13.000;2024-01-27T02:00:12;15.55;;;3.80;;
54269;SDS011;40181;51.560;13.000;2024-01-27T02:05:12;14.27;;;3.53;;
54269;SDS011;40181;51.560;13.000;2024-01-27T02:07:41;14.63;;;2.70;;
54269;SDS011;40181;51.560;13.000;2024-01-27T02:10:15;6.57;;;2.90;;
54269;SDS011;40181;51.560;13.000;2024-01-27T02:12:45;6.05;;;2.90;;
54269;SDS011;40181;51.560;13.000;2024-01-27T02:15:14;7.53;;;2.78;;
54269;SDS011;40181;51.560;13.000;2024-01-27T02:17:43;9.40;;;2.92;;
54269;SDS011;40181;51.560;13.000;2024-01-27T02:20:12;12.63;;;2.90;;
54269;SDS011;40181;51.560;13.000;2024-01-27T02:22:41;12.48;;;3.78;;
54269;SDS011;40181;51.560;13.000;2024-01-27T02:25:13;10.48;;;3.13;;
54269;SDS011;40181;51.560;13.000;2024-01-27T02:27:42;6.40;;;3.58;;
54269;SDS011;40181;51.560;13.000;2024-01-27T02:30:11;5.10;;;2.80;;
54269;SDS011;40181;51.560;13.000;2024-01-27T02:32:40;5.60;;;2.83;;
54269;SDS011;40181;51.560;13.000;2024-01-27T02:35:09;8.23;;;2.90;;
54269;SDS011;40181;51.560;13.000;2024-01-27T02:37:39;6.63;;;3.63;;
54269;SDS011;40181;51.560;13.000;2024-01-27T02:40:09;7.32;;;3.15;;
54269;SDS011;40181;51.560;13.000;2024-01-27T02:42:41;6.78;;;3.10;;
54269;SDS011;40181;51.560;13.000;2024-01-27T02:45:10;7.20;;;3.28;;
54269;SDS011;40181;51.560;13.000;2024-01-27T02:47:39;7.23;;;3.43;;
54269;SDS011;40181;51.560;13.000;2024-01-27T02:50:09;13.70;;;2.88;;
54269;SDS011;40181;51.560;13.000;2024-01-27T02:52:38;8.48;;;2.60;;
54269;SDS011;40181;51.560;13.000;2024-01-27T02:55:07;7.22;;;3.00;;
54269;SDS011;40181;51.560;13.000;2024-01-27T02:57:39;5.20;;;2.08;;
54269;SDS011;40181;51.560;13.000;2024-01-27T03:00:09;10.65;;;2.95;;
54269;SDS011;40181;51.560;13.000;2024-01-27T03:02:39;7.65;;;2.38;;
54269;SDS011;40181;51.560;13.000;2024-01-27T03:05:08;11.63;;;3.28;;
54269;SDS011;40181;51.560;13.000;2024-01-27T03:07:39;12.27;;;3.33;;
54269;SDS011;40181;51.560;13.000;2024-01-27T03:10:08;10.45;;;3.65;;
54269;SDS011;40181;51.560;13.000;2024-01-27T03:12:39;9.27;;;3.50;;
54269;SDS011;40181;51.560;13.000;2024-01-27T03:15:08;10.98;;;3.03;;
54269;SDS011;40181;51.560;13.000;2024-01-27T03:17:37;8.35;;;2.85;;
54269;SDS011;40181;51.560;13.000;2024-01-27T03:20:07;3.95;;;2.47;;
54269;SDS011;40181;51.560;13.000;2024-01-27T03:22:38;7.28;;;3.03;;
54269;SDS011;40181;51.560;13.000;2024-01-27T03:25:07;5.45;;;2.72;;
54269;SDS011;40181;51.560;13.000;2024-01-27T03:27:41;5.68;;;2.65;;
54269;SDS011;40181;51.560;13.000;2024-01-27T03:30:10;11.15;;;3.65;;
54269;SDS011;40181;51.560;13.000;2024-01-27T03:32:40;13.82;;;3.45;;
54269;SDS011;40181;51.560;13.000;2024-01-27T03:35:09;7.03;;;3.45;;
54269;SDS011;40181;51.560;13.000;2024-01-27T03:37:38;4.07;;;2.08;;
54269;SDS011;40181;51.560;13.000;2024-01-27T03:40:08;3.85;;;2.47;;
54269;SDS011;40181;51.560;13.000;2024-01-27T03:42:41;8.60;;;3.35;;
54269;SDS011;40181;51.560;13.000;2024-01-27T03:45:10;10.88;;;3.10;;
54269;SDS011;40181;51.560;13.000;2024-01-27T03:47:39;7.03;;;2.70;;
54269;SDS011;40181;51.560;13.000;2024-01-27T03:50:08;4.88;;;2.88;;
54269;SDS011;40181;51.560;13.000;2024-01-27T03:52:38;12.45;;;2.63;;
54269;SDS011;40181;51.560;13.000;2024-01-27T03:55:05;4.00;;;1.92;;
54269;SDS011;40181;51.560;13.000;2024-01-27T03:57:35;14.57;;;2.83;;
54269;SDS011;40181;51.560;13.000;2024-01-27T04:00:07;5.95;;;2.50;;
54269;SDS011;40181;51.560;13.000;2024-01-27T04:02:38;5.68;;;2.78;;
54269;SDS011;40181;51.560;13.000;2024-01-27T04:05:07;6.85;;;2.70;;
54269;SDS011;40181;51.560;13.000;2024-01-27T04:07:36;4.97;;;2.78;;
54269;SDS011;40181;51.560;13.000;2024-01-27T04:10:05;4.88;;;2.38;;
54269;SDS011;40181;51.560;13.000;2024-01-27T04:12:34;10.00;;;3.22;;
54269;SDS011;40181;51.560;13.000;2024-01-27T04:15:03;2.63;;;2.00;;
54269;SDS011;40181;51.560;13.000;2024-01-27T04:17:35;13.73;;;3.22;;
54269;SDS011;40181;51.560;13.000;2024-01-27T04:20:06;2.53;;;1.63;;
54269;SDS011;40181;51.560;13.000;2024-01-27T04:22:37;5.38;;;2.25;;
54269;SDS011;40181;51.560;13.000;2024-01-27T04:25:06;4.32;;;2.47;;
54269;SDS011;40181;51.560;13.000;2024-01-27T04:27:36;10.43;;;3.07;;
54269;SDS011;40181;51.560;13.000;2024-01-27T04:30:10;4.55;;;2.65;;
54269;SDS011;40181;51.560;13.000;2024-01-27T04:32:40;7.00;;;2.78;;
54269;SDS011;40181;51.560;13.000;2024-01-27T04:35:09;10.25;;;2.83;;
54269;SDS011;40181;51.560;13.000;2024-01-27T04:37:39;4.07;;;2.60;;
54269;SDS011;40181;51.560;13.000;2024-01-27T04:40:09;7.22;;;2.30;;
54269;SDS011;40181;51.560;13.000;2024-01-27T04:42:39;5.10;;;2.33;;
54269;SDS011;40181;51.560;13.000;2024-01-27T04:45:14;9.35;;;2.40;;
54269;SDS011;40181;51.560;13.000;2024-01-27T04:47:43;2.70;;;1.85;;
54269;SDS011;40181;51.560;13.000;2024-01-27T04:50:12;16.38;;;2.75;;
54269;SDS011;40181;51.560;13.000;2024-01-27T04:52:42;6.32;;;2.65;;
54269;SDS011;40181;51.560;13.000;2024-01-27T04:55:11;4.85;;;2.50;;
54269;SDS011;40181;51.560;13.000;2024-01-27T04:57:40;8.98;;;2.92;;
54269;SDS011;40181;51.560;13.000;2024-01-27T05:00:12;8.57;;;1.90;;
54269;SDS011;40181;51.560;13.000;2024-01-27T05:02:43;12.30;;;2.67;;
54269;SDS011;40181;51.560;13.000;2024-01-27T05:05:12;9.95;;;2.90;;
54269;SDS011;40181;51.560;13.000;2024-01-27T05:07:41;5.40;;;2.38;;
54269;SDS011;40181;51.560;13.000;2024-01-27T05:10:12;10.55;;;3.05;;
54269;SDS011;40181;51.560;13.000;2024-01-27T05:12:42;6.38;;;2.58;;
54269;SDS011;40181;51.560;13.000;2024-01-27T05:15:13;7.95;;;2.78;;
54269;SDS011;40181;51.560;13.000;2024-01-27T05:17:43;7.95;;;2.90;;
54269;SDS011;40181;51.560;13.000;2024-01-27T05:20:12;4.18;;;2.35;;
54269;SDS011;40181;51.560;13.000;2024-01-27T05:22:41;13.98;;;3.55;;
54269;SDS011;40181;51.560;13.000;2024-01-27T05:25:10;7.03;;;3.05;;
54269;SDS011;40181;51.560;13.000;2024-01-27T05:27:41;5.25;;;2.55;;
54269;SDS011;40181;51.560;13.000;2024-01-27T05:30:11;5.78;;;2.28;;
54269;SDS011;40181;51.560;13.000;2024-01-27T05:32:44;5.57;;;2.58;;
54269;SDS011;40181;51.560;13.000;2024-01-27T05:35:13;9.07;;;3.85;;
54269;SDS011;40181;51.560;13.000;2024-01-27T05:37:42;6.70;;;2.78;;
54269;SDS011;40181;51.560;13.000;2024-01-27T05:40:12;6.10;;;2.60;;
54269;SDS011;40181;51.560;13.000;2024-01-27T05:42:41;3.33;;;2.05;;
54269;SDS011;40181;51.560;13.000;2024-01-27T05:45:10;9.25;;;3.17;;
54269;SDS011;40181;51.560;13.000;2024-01-27T05:47:42;9.85;;;3.35;;
54269;SDS011;40181;51.560;13.000;2024-01-27T05:50:11;5.80;;;2.55;;
54269;SDS011;40181;51.560;13.000;2024-01-27T05:52:40;12.15;;;3.50;;
54269;SDS011;40181;51.560;13.000;2024-01-27T05:55:09;5.05;;;2.38;;
54269;SDS011;40181;51.560;13.000;2024-01-27T05:57:38;9.60;;;3.00;;
54269;SDS011;40181;51.560;13.000;2024-01-27T06:00:08;5.05;;;2.33;;
54269;SDS011;40181;51.560;13.000;2024-01-27T06:02:41;5.97;;;2.28;;
54269;SDS011;40181;51.560;13.000;2024-01-27T06:05:10;6.43;;;2.85;;
54269;SDS011;40181;51.560;13.000;2024-01-27T06:07:39;7.95;;;2.45;;
54269;SDS011;40181;51.560;13.000;2024-01-27T06:10:11;10.20;;;2.20;;
54269;SDS011;40181;51.560;13.000;2024-01-27T06:12:40;16.33;;;3.20;;
54269;SDS011;40181;51.560;13.000;2024-01-27T06:15:09;3.83;;;2.08;;
54269;SDS011;40181;51.560;13.000;2024-01-27T06:17:43;8.25;;;2.38;;
54269;SDS011;40181;51.560;13.000;2024-01-27T06:20:12;8.73;;;2.63;;
54269;SDS011;40181;51.560;13.000;2024-01-27T06:22:42;13.45;;;3.58;;
54269;SDS011;40181;51.560;13.000;2024-01-27T06:25:11;12.65;;;3.15;;
54269;SDS011;40181;51.560;13.000;2024-01-27T06:27:41;7.15;;;3.00;;
54269;SDS011;40181;51.560;13.000;2024-01-27T06:30:11;5.32;;;2.83;;
54269;SDS011;40181;51.560;13.000;2024-01-27T06:32:44;8.02;;;2.85;;
54269;SDS011;40181;51.560;13.000;2024-01-27T06:35:13;8.68;;;2.55;;
54269;SDS011;40181;51.560;13.000;2024-01-27T06:37:43;6.40;;;2.78;;
54269;SDS011;40181;51.560;13.000;2024-01-27T06:40:12;9.40;;;3.00;;
54269;SDS011;40181;51.560;13.000;2024-01-27T06:42:41;7.95;;;3.38;;
54269;SDS011;40181;51.560;13.000;2024-01-27T06:45:11;22.75;;;3.45;;
54269;SDS011;40181;51.560;13.000;2024-01-27T06:47:40;9.23;;;2.53;;
54269;SDS011;40181;51.560;13.000;2024-01-27T06:50:11;2.67;;;1.98;;
54269;SDS011;40181;51.560;13.000;2024-01-27T06:52:41;4.72;;;2.67;;
54269;SDS011;40181;51.560;13.000;2024-01-27T06:55:11;8.50;;;3.80;;
54269;SDS011;40181;51.560;13.000;2024-01-27T06:57:40;4.65;;;2.92;;
54269;SDS011;40181;51.560;13.000;2024-01-27T07:00:09;7.10;;;3.58;;
54269;SDS011;40181;51.560;13.000;2024-01-27T07:02:40;10.43;;;3.80;;
54269;SDS011;40181;51.560;13.000;2024-01-27T07:05:12;26.85;;;4.38;;
54269;SDS011;40181;51.560;13.000;2024-01-27T07:07:42;6.93;;;3.05;;
54269;SDS011;40181;51.560;13.000;2024-01-27T07:10:11;9.13;;;2.67;;
54269;SDS011;40181;51.560;13.000;2024-01-27T07:12:40;5.30;;;2.83;;
54269;SDS011;40181;51.560;13.000;2024-01-27T07:15:09;4.75;;;2.40;;
54269;SDS011;40181;51.560;13.000;2024-01-27T07:17:38;7.78;;;2.45;;
54269;SDS011;40181;51.560;13.000;2024-01-27T07:20:11;7.82;;;3.45;;
54269;SDS011;40181;51.560;13.000;2024-01-27T07:22:41;10.32;;;3.08;;
54269;SDS011;40181;51.560;13.000;2024-01-27T07:25:10;19.65;;;3.65;;
54269;SDS011;40181;51.560;13.000;2024-01-27T07:27:39;9.05;;;2.63;;
54269;SDS011;40181;51.560;13.000;2024-01-27T07:30:09;5.85;;;2.65;;
54269;SDS011;40181;51.560;13.000;2024-01-27T07:32:39;7.18;;;3.25;;
54269;SDS011;40181;51.560;13.000;2024-01-27T07:35:11;9.93;;;3.90;;
54269;SDS011;40181;51.560;13.000;2024-01-27T07:37:40;4.32;;;2.67;;
54269;SDS011;40181;51.560;13.000;2024-01-27T07:40:10;5.43;;;3.08;;
54269;SDS011;40181;51.560;13.000;2024-01-27T07:42:40;7.60;;;2.80;;
54269;SDS011;40181;51.560;13.000;2024-01-27T07:45:09;5.82;;;3.38;;
54269;SDS011;40181;51.560;13.000;2024-01-27T07:47:38;8.45;;;3.83;;
54269;SDS011;40181;51.560;13.000;2024-01-27T07:50:07;5.80;;;2.42;;
54269;SDS011;40181;51.560;13.000;2024-01-27T07:52:39;7.45;;;3.50;;
54269;SDS011;40181;51.560;13.000;2024-01-27T07:55:09;5.72;;;3.40;;
54269;SDS011;40181;51.560;13.000;2024-01-27T07:57:38;9.60;;;3.78;;
54269;SDS011;40181;51.560;13.000;2024-01-27T08:00:07;8.32;;;3.20;;
54269;SDS011;40181;51.560;13.000;2024-01-27T08:02:38;10.18;;;3.17;;
54269;SDS011;40181;51.560;13.000;2024-01-27T08:05:07;11.88;;;4.00;;
54269;SDS011;40181;51.560;13.000;2024-01-27T08:07:39;7.38;;;4.13;;
54269;SDS011;40181;51.560;13.000;2024-01-27T08:10:08;10.55;;;4.45;;
54269;SDS011;40181;51.560;13.000;2024-01-27T08:12:37;8.23;;;2.93;;
54269;SDS011;40181;51.560;13.000;2024-01-27T08:15:07;6.90;;;2.72;;
54269;SDS011;40181;51.560;13.000;2024-01-27T08:17:36;6.10;;;3.05;;
54269;SDS011;40181;51.560;13.000;2024-01-27T08:20:06;7.55;;;3.50;;
54269;SDS011;40181;51.560;13.000;2024-01-27T08:22:39;12.85;;;4.75;;
54269;SDS011;40181;51.560;13.000;2024-01-27T08:25:08;10.40;;;3.53;;
54269;SDS011;40181;51.560;13.000;2024-01-27T08:27:37;4.18;;;2.85;;
54269;SDS011;40181;51.560;13.000;2024-01-27T08:30:07;13.15;;;3.70;;
54269;SDS011;40181;51.560;13.000;2024-01-27T08:32:37;6.28;;;3.75;;
54269;SDS011;40181;51.560;13.000;2024-01-27T08:35:07;10.40;;;3.78;;
54269;SDS011;40181;51.560;13.000;2024-01-27T08:37:39;10.30;;;4.05;;
54269;SDS011;40181;51.560;13.000;2024-01-27T08:40:09;14.38;;;4.10;;
54269;SDS011;40181;51.560;13.000;2024-01-27T08:42:38;11.40;;;3.83;;
54269;SDS011;40181;51.560;13.000;2024-01-27T08:45:07;6.78;;;3.53;;
54269;SDS011;40181;51.560;13.000;2024-01-27T08:47:37;3.45;;;2.60;;
54269;SDS011;40181;51.560;13.000;2024-01-27T08:50:06;7.90;;;3.72;;
54269;SDS011;40181;51.560;13.000;2024-01-27T08:52:37;9.10;;;4.95;;
54269;SDS011;40181;51.560;13.000;2024-01-27T08:55:08;12.13;;;5.05;;
54269;SDS011;40181;51.560;13.000;2024-01-27T08:57:37;17.95;;;5.53;;
54269;SDS011;40181;51.560;13.000;2024-01-27T09:00:07;11.05;;;4.45;;
54269;SDS011;40181;51.560;13.000;2024-01-27T09:02:40;7.03;;;3.97;;
54269;SDS011;40181;51.560;13.000;2024-01-27T09:05:09;14.65;;;4.68;;
54269;SDS011;40181;51.560;13.000;2024-01-27T09:07:40;15.45;;;4.78;;
54269;SDS011;40181;51.560;13.000;2024-01-27T09:10:09;9.45;;;4.68;;
54269;SDS011;40181;51.560;13.000;2024-01-27T09:12:40;5.63;;;3.53;;
54269;SDS011;40181;51.560;13.000;2024-01-27T09:15:10;10.15;;;4.22;;
54269;SDS011;40181;51.560;13.000;2024-01-27T09:17:39;8.82;;;4.00;;
54269;SDS011;40181;51.560;13.000;2024-01-27T09:20:08;7.65;;;4.05;;
54269;SDS011;40181;51.560;13.000;2024-01-27T09:22:41;8.48;;;3.50;;
54269;SDS011;40181;51.560;13.000;2024-01-27T09:25:12;6.18;;;3.67;;
54269;SDS011;40181;51.560;13.000;2024-01-27T09:27:41;8.40;;;3.65;;
54269;SDS011;40181;51.560;13.000;2024-01-27T09:30:11;6.43;;;3.42;;
54269;SDS011;40181;51.560;13.000;2024-01-27T09:35:10;14.13;;;3.88;;
54269;SDS011;40181;51.560;13.000;2024-01-27T09:37:41;11.27;;;5.07;;
54269;SDS011;40181;51.560;13.000;2024-01-27T09:40:11;8.80;;;3.60;;
54269;SDS011;40181;51.560;13.000;2024-01-27T09:42:40;9.57;;;4.30;;
54269;SDS011;40181;51.560;13.000;2024-01-27T09:45:19;8.63;;;4.32;;
54269;SDS011;40181;51.560;13.000;2024-01-27T09:47:49;7.03;;;3.33;;
54269;SDS011;40181;51.560;13.000;2024-01-27T09:50:20;7.30;;;3.58;;
54269;SDS011;40181;51.560;13.000;2024-01-27T09:52:53;6.97;;;3.03;;
54269;SDS011;40181;51.560;13.000;2024-01-27T09:55:22;9.63;;;4.00;;
54269;SDS011;40181;51.560;13.000;2024-01-27T09:57:51;8.30;;;3.72;;
54269;SDS011;40181;51.560;13.000;2024-01-27T10:00:20;12.20;;;3.60;;
54269;SDS011;40181;51.560;13.000;2024-01-27T10:02:51;6.80;;;3.75;;
54269;SDS011;40181;51.560;13.000;2024-01-27T10:05:22;8.93;;;4.43;;
54269;SDS011;40181;51.560;13.000;2024-01-27T10:07:55;10.45;;;3.97;;
54269;SDS011;40181;51.560;13.000;2024-01-27T10:10:24;12.77;;;3.88;;
54269;SDS011;40181;51.560;13.000;2024-01-27T10:12:53;9.00;;;4.07;;
54269;SDS011;40181;51.560;13.000;2024-01-27T10:15:27;10.55;;;3.65;;
54269;SDS011;40181;51.560;13.000;2024-01-27T10:18:03;9.65;;;3.35;;
54269;SDS011;40181;51.560;13.000;2024-01-27T10:20:38;10.43;;;4.05;;
54269;SDS011;40181;51.560;13.000;2024-01-27T10:23:14;16.52;;;4.60;;
54269;SDS011;40181;51.560;13.000;2024-01-27T10:25:43;8.63;;;3.35;;
54269;SDS011;40181;51.560;13.000;2024-01-27T10:28:12;14.55;;;4.03;;
54269;SDS011;40181;51.560;13.000;2024-01-27T10:30:41;16.60;;;3.80;;
54269;SDS011;40181;51.560;13.000;2024-01-27T10:33:13;8.32;;;3.67;;
54269;SDS011;40181;51.560;13.000;2024-01-27T10:35:43;6.90;;;3.70;;
54269;SDS011;40181;51.560;13.000;2024-01-27T10:38:15;9.53;;;3.03;;
54269;SDS011;40181;51.560;13.000;2024-01-27T10:40:44;14.00;;;3.88;;
54269;SDS011;40181;51.560;13.000;2024-01-27T10:43:13;9.25;;;4.22;;
54269;SDS011;40181;51.560;13.000;2024-01-27T10:45:44;15.30;;;5.13;;
54269;SDS011;40181;51.560;13.000;2024-01-27T10:48:14;8.70;;;3.55;;
54269;SDS011;40181;51.560;13.000;2024-01-27T10:50:43;7.55;;;3.38;;
54269;SDS011;40181;51.560;13.000;2024-01-27T10:53:19;14.82;;;3.38;;
54269;SDS011;40181;51.560;13.000;2024-01-27T10:55:56;8.50;;;4.32;;
54269;SDS011;40181;51.560;13.000;2024-01-27T10:58:27;5.43;;;2.22;;
54269;SDS011;40181;51.560;13.000;2024-01-27T11:01:00;7.50;;;3.17;;
54269;SDS011;40181;51.560;13.000;2024-01-27T11:03:32;12.65;;;4.35;;
54269;SDS011;40181;51.560;13.000;2024-01-27T11:06:02;12.32;;;4.65;;
54269;SDS011;40181;51.560;13.000;2024-01-27T11:08:36;8.23;;;4.13;;
54269;SDS011;40181;51.560;13.000;2024-01-27T11:11:06;9.48;;;3.55;;
54269;SDS011;40181;51.560;13.000;2024-01-27T11:13:36;5.65;;;2.63;;
54269;SDS011;40181;51.560;13.000;2024-01-27T11:16:06;6.57;;;2.55;;
54269;SDS011;40181;51.560;13.000;2024-01-27T11:18:45;7.80;;;3.55;;
54269;SDS011;40181;51.560;13.000;2024-01-27T11:21:17;5.35;;;3.10;;
54269;SDS011;40181;51.560;13.000;2024-01-27T11:23:50;9.52;;;3.65;;
54269;SDS011;40181;51.560;13.000;2024-01-27T11:26:19;5.93;;;3.13;;
54269;SDS011;40181;51.560;13.000;2024-01-27T11:28:51;4.43;;;2.47;;
54269;SDS011;40181;51.560;13.000;2024-01-27T11:31:20;6.13;;;2.97;;
54269;SDS011;40181;51.560;13.000;2024-01-27T11:33:50;7.95;;;2.85;;
54269;SDS011;40181;51.560;13.000;2024-01-27T11:36:20;10.95;;;3.35;;
54269;SDS011;40181;51.560;13.000;2024-01-27T11:38:54;7.90;;;3.10;;
54269;SDS011;40181;51.560;13.000;2024-01-27T11:41:24;6.68;;;3.05;;
54269;SDS011;40181;51.560;13.000;2024-01-27T11:43:54;8.02;;;3.20;;
54269;SDS011;40181;51.560;13.000;2024-01-27T11:46:25;6.40;;;2.95;;
54269;SDS011;40181;51.560;13.000;2024-01-27T11:48:54;5.05;;;2.60;;
54269;SDS011;40181;51.560;13.000;2024-01-27T11:51:24;10.07;;;3.70;;
54269;SDS011;40181;51.560;13.000;2024-01-27T11:53:56;9.35;;;3.42;;
54269;SDS011;40181;51.560;13.000;2024-01-27T11:56:25;6.85;;;3.03;;
54269;SDS011;40181;51.560;13.000;2024-01-27T11:58:54;6.50;;;2.83;;
54269;SDS011;40181;51.560;13.000;2024-01-27T12:01:23;5.55;;;3.03;;
54269;SDS011;40181;51.560;13.000;2024-01-27T12:03:52;6.50;;;2.08;;
54269;SDS011;40181;51.560;13.000;2024-01-27T12:06:22;4.25;;;2.53;;
54269;SDS011;40181;51.560;13.000;2024-01-27T12:08:52;8.98;;;2.80;;
54269;SDS011;40181;51.560;13.000;2024-01-27T12:11:25;5.80;;;2.25;;
54269;SDS011;40181;51.560;13.000;2024-01-27T12:13:55;13.73;;;3.97;;
54269;SDS011;40181;51.560;13.000;2024-01-27T12:16:24;6.25;;;2.83;;
54269;SDS011;40181;51.560;13.000;2024-01-27T12:18:53;3.50;;;2.00;;
54269;SDS011;40181;51.560;13.000;2024-01-27T12:21:23;6.65;;;2.80;;
54269;SDS011;40181;51.560;13.000;2024-01-27T12:23:55;13.88;;;3.35;;
54269;SDS011;40181;51.560;13.000;2024-01-27T12:26:27;5.82;;;3.13;;
54269;SDS011;40181;51.560;13.000;2024-01-27T12:28:57;8.15;;;3.60;;
54269;SDS011;40181;51.560;13.000;2024-01-27T12:33:57;17.42;;;2.78;;
54269;SDS011;40181;51.560;13.000;2024-01-27T12:36:26;10.50;;;2.88;;
54269;SDS011;40181;51.560;13.000;2024-01-27T12:38:59;8.98;;;2.60;;
54269;SDS011;40181;51.560;13.000;2024-01-27T12:41:30;7.55;;;2.45;;
54269;SDS011;40181;51.560;13.000;2024-01-27T12:43:59;9.10;;;3.03;;
54269;SDS011;40181;51.560;13.000;2024-01-27T12:46:29;9.43;;;4.00;;
54269;SDS011;40181;51.560;13.000;2024-01-27T12:48:58;7.30;;;3.00;;
54269;SDS011;40181;51.560;13.000;2024-01-27T12:51:28;5.10;;;2.38;;
54269;SDS011;40181;51.560;13.000;2024-01-27T12:53:59;4.43;;;1.90;;
54269;SDS011;40181;51.560;13.000;2024-01-27T12:56:28;7.40;;;2.13;;
54269;SDS011;40181;51.560;13.000;2024-01-27T12:59:00;6.65;;;2.67;;
54269;SDS011;40181;51.560;13.000;2024-01-27T13:04:02;4.82;;;2.22;;
54269;SDS011;40181;51.560;13.000;2024-01-27T13:06:31;5.82;;;2.67;;
54269;SDS011;40181;51.560;13.000;2024-01-27T13:09:03;5.93;;;2.45;;
54269;SDS011;40181;51.560;13.000;2024-01-27T13:11:32;7.90;;;2.35;;
54269;SDS011;40181;51.560;13.000;2024-01-27T13:14:01;5.13;;;2.33;;
54269;SDS011;40181;51.560;13.000;2024-01-27T13:16:30;7.50;;;2.60;;
54269;SDS011;40181;51.560;13.000;2024-01-27T13:18:59;4.97;;;2.47;;
54269;SDS011;40181;51.560;13.000;2024-01-27T13:21:28;9.43;;;2.45;;
54269;SDS011;40181;51.560;13.000;2024-01-27T13:23:57;4.45;;;1.75;;
54269;SDS011;40181;51.560;13.000;2024-01-27T13:26:29;5.05;;;2.10;;
54269;SDS011;40181;51.560;13.000;2024-01-27T13:29:02;5.38;;;2.40;;
54269;SDS011;40181;51.560;13.000;2024-01-27T13:31:32;3.20;;;1.58;;
54269;SDS011;40181;51.560;13.000;2024-01-27T13:34:01;5.97;;;2.53;;
54269;SDS011;40181;51.560;13.000;2024-01-27T13:36:30;5.00;;;2.03;;
54269;SDS011;40181;51.560;13.000;2024-01-27T13:38:59;14.32;;;2.50;;
54269;SDS011;40181;51.560;13.000;2024-01-27T13:41:31;2.10;;;1.23;;
54269;SDS011;40181;51.560;13.000;2024-01-27T13:44:00;7.93;;;2.35;;
54269;SDS011;40181;51.560;13.000;2024-01-27T13:46:30;3.38;;;1.88;;
54269;SDS011;40181;51.560;13.000;2024-01-27T13:49:02;4.40;;;1.70;;
54269;SDS011;40181;51.560;13.000;2024-01-27T13:51:31;5.78;;;2.13;;
54269;SDS011;40181;51.560;13.000;2024-01-27T13:54:00;4.50;;;1.88;;
54269;SDS011;40181;51.560;13.000;2024-01-27T13:56:36;4.72;;;1.73;;
54269;SDS011;40181;51.560;13.000;2024-01-27T13:59:05;7.90;;;2.40;;
54269;SDS011;40181;51.560;13.000;2024-01-27T14:01:35;6.25;;;2.08;;
54269;SDS011;40181;51.560;13.000;2024-01-27T14:04:04;5.60;;;1.80;;
54269;SDS011;40181;51.560;13.000;2024-01-27T14:06:33;2.13;;;1.50;;
54269;SDS011;40181;51.560;13.000;2024-01-27T14:09:03;3.53;;;2.00;;
54269;SDS011;40181;51.560;13.000;2024-01-27T14:11:32;7.30;;;2.25;;
54269;SDS011;40181;51.560;13.000;2024-01-27T14:14:04;4.80;;;1.67;;
54269;SDS011;40181;51.560;13.000;2024-01-27T14:16:33;3.78;;;1.90;;
54269;SDS011;40181;51.560;13.000;2024-01-27T14:19:02;1.98;;;1.38;;
54269;SDS011;40181;51.560;13.000;2024-01-27T14:21:31;3.47;;;1.77;;
54269;SDS011;40181;51.560;13.000;2024-01-27T14:24:01;4.25;;;1.83;;
54269;SDS011;40181;51.560;13.000;2024-01-27T14:26:31;4.55;;;1.92;;
54269;SDS011;40181;51.560;13.000;2024-01-27T14:29:05;5.65;;;2.47;;
54269;SDS011;40181;51.560;13.000;2024-01-27T14:31:35;5.78;;;2.05;;
54269;SDS011;40181;51.560;13.000;2024-01-27T14:34:04;5.03;;;2.08;;
54269;SDS011;40181;51.560;13.000;2024-01-27T14:36:34;3.53;;;1.70;;
54269;SDS011;40181;51.560;13.000;2024-01-27T14:39:04;2.95;;;1.50;;
54269;SDS011;40181;51.560;13.000;2024-01-27T14:41:35;11.90;;;2.85;;
54269;SDS011;40181;51.560;13.000;2024-01-27T14:44:07;7.82;;;3.05;;
54269;SDS011;40181;51.560;13.000;2024-01-27T14:46:36;4.50;;;1.60;;
54269;SDS011;40181;51.560;13.000;2024-01-27T14:49:06;2.40;;;1.73;;
54269;SDS011;40181;51.560;13.000;2024-01-27T14:51:35;6.60;;;1.67;;
54269;SDS011;40181;51.560;13.000;2024-01-27T14:54:04;7.03;;;2.58;;
54269;SDS011;40181;51.560;13.000;2024-01-27T14:56:33;4.57;;;1.70;;
54269;SDS011;40181;51.560;13.000;2024-01-27T14:59:02;3.25;;;1.73;;